Terminal Aerodrome Forecast
Issued by NWS

Home | Current Version | Previous Version | Text Only | Print | Product List | Glossary On
Versions: 1 2 3 4 5 6 7 8 9 10 11 12 13 14 15
000
FTUS44 KCRP 282300
TAFALI
TAF
KALI 282330Z 2900/2924 14015G22KT P6SM FEW050
     FM290200 19004KT P6SM FEW015
      TEMPO 2910/2914 5SM BR BKN015
     FM291400 18010KT P6SM SCT025
     FM292000 14012G20KT P6SM SCT045=

USA.gov is the U.S. government's official web portal to all federal, state and local government web resources and services.